createdAt,value
2023-04-26T00:05:05.886Z,3.7
2023-04-26T00:10:12.114Z,3.7
2023-04-26T00:15:18.487Z,3.6
2023-04-26T00:20:14.879Z,3.6
2023-04-26T00:25:32.819Z,3.5
2023-04-26T00:30:29.156Z,3.5
2023-04-26T00:36:09.622Z,3.4
2023-04-26T00:40:51.926Z,3.4
2023-04-26T00:45:58.390Z,3.3
2023-04-26T00:51:04.721Z,3.2
2023-04-26T00:56:11.319Z,3.2
2023-04-26T01:01:07.656Z,3.1
2023-04-26T01:06:24.004Z,3.0
2023-04-26T01:11:30.466Z,3.0
2023-04-26T01:16:26.992Z,3.0
2023-04-26T01:21:43.377Z,2.9
2023-04-26T01:26:49.755Z,2.8
2023-04-26T01:31:56.134Z,2.8
2023-04-26T01:37:28.108Z,2.8
2023-04-26T01:42:10.451Z,2.7
2023-04-26T01:47:16.811Z,2.7
2023-04-26T01:52:23.179Z,2.6
2023-04-26T01:57:29.751Z,2.6
2023-04-26T02:02:26.153Z,2.5
2023-04-26T02:07:42.441Z,2.5
2023-04-26T02:12:48.841Z,2.4
2023-04-26T02:17:56.834Z,2.4
2023-04-26T02:23:03.172Z,2.3
2023-04-26T02:28:10.135Z,2.2
2023-04-26T02:33:16.509Z,2.2
2023-04-26T02:38:22.872Z,2.1
2023-04-26T02:43:29.345Z,2.1
2023-04-26T02:48:35.659Z,2.1
2023-04-26T02:53:42.194Z,2.0
2023-04-26T02:58:38.742Z,2.0
2023-04-26T03:03:55.150Z,2.0
2023-04-26T03:09:02.194Z,1.9
2023-04-26T03:14:08.619Z,1.9
2023-04-26T03:19:15.023Z,1.8
2023-04-26T03:29:28.485Z,1.8
2023-04-26T03:34:35.938Z,1.7
2023-04-26T03:39:42.391Z,1.7
2023-04-26T03:45:08.965Z,1.7
2023-04-26T03:49:55.288Z,1.6
2023-04-26T03:55:01.658Z,1.6
2023-04-26T04:00:08.063Z,1.6
2023-04-26T04:05:15.755Z,1.5
2023-04-26T04:10:21.963Z,1.5
2023-04-26T04:15:34.057Z,1.5
2023-04-26T04:20:35.378Z,1.5
2023-04-26T04:25:42.719Z,1.5
2023-04-26T04:31:53.132Z,1.5
2023-04-26T04:36:36.478Z,1.5
2023-04-26T04:41:42.975Z,1.5
2023-04-26T04:46:49.413Z,1.5
2023-04-26T04:51:55.767Z,1.5
2023-04-26T04:57:03.702Z,1.5
2023-04-26T05:07:16.493Z,1.5
2023-04-26T05:12:22.856Z,1.5
2023-04-26T05:17:29.300Z,1.5
2023-04-26T05:22:55.858Z,1.5
2023-04-26T05:28:06.197Z,1.6
2023-04-26T05:32:48.538Z,1.6
2023-04-26T05:38:18.998Z,1.7
2023-04-26T05:43:01.298Z,1.8
2023-04-26T05:53:14.197Z,2.0
2023-04-26T05:58:20.586Z,2.2
2023-04-26T06:03:27.124Z,2.3
2023-04-26T06:08:33.332Z,2.6
2023-04-26T06:13:39.736Z,2.8
2023-04-26T06:19:10.138Z,3.0
2023-04-26T06:34:29.272Z,3.7
2023-04-26T06:39:11.751Z,3.9
2023-04-26T06:44:18.410Z,4.1
2023-04-26T06:49:24.626Z,4.3
2023-04-26T06:55:05.066Z,4.6
2023-04-26T06:59:27.389Z,4.8
2023-04-26T07:05:03.959Z,5.1
2023-04-26T07:14:55.775Z,5.6
2023-04-26T07:20:02.886Z,5.7
2023-04-26T07:25:29.356Z,6.0
2023-04-26T07:40:28.415Z,6.9
2023-04-26T07:45:24.866Z,7.4
2023-04-26T07:50:41.233Z,7.9
2023-04-26T07:55:47.609Z,8.2
2023-04-26T08:00:53.147Z,8.5
2023-04-26T08:06:04.144Z,8.7
2023-04-26T08:11:10.338Z,8.9
2023-04-26T08:16:16.975Z,9.0
2023-04-26T08:21:13.187Z,9.2
2023-04-26T08:26:53.646Z,9.4
2023-04-26T08:31:36.047Z,9.6
2023-04-26T08:36:42.502Z,9.8
2023-04-26T08:41:48.872Z,10.3
2023-04-26T08:46:55.385Z,11.0
2023-04-26T08:52:01.680Z,11.7
2023-04-26T08:57:08.038Z,12.5
2023-04-26T09:02:14.554Z,13.2
2023-04-26T09:07:20.832Z,13.7
2023-04-26T09:12:27.166Z,14.1
2023-04-26T09:22:40.082Z,14.3
2023-04-26T09:27:46.448Z,14.2
2023-04-26T09:32:52.905Z,14.0
2023-04-26T09:48:11.989Z,13.3
2023-04-26T09:53:38.437Z,13.1
2023-04-26T09:58:26.330Z,12.9
2023-04-26T10:03:32.869Z,12.7
2023-04-26T10:08:39.086Z,12.6
2023-04-26T10:13:45.475Z,12.6
2023-04-26T10:19:15.960Z,12.8
2023-04-26T10:23:58.247Z,13.2
2023-04-26T10:29:04.871Z,13.6
2023-04-26T10:34:31.071Z,13.9
2023-04-26T10:39:17.384Z,14.1
2023-04-26T10:44:13.748Z,14.2
2023-04-26T10:49:30.159Z,14.2
2023-04-26T10:54:36.598Z,14.2
2023-04-26T11:00:39.053Z,14.1
2023-04-26T11:04:39.348Z,14.0
2023-04-26T11:10:15.794Z,13.9
2023-04-26T11:15:02.121Z,13.8
2023-04-26T11:20:28.538Z,13.7
2023-04-26T11:25:14.871Z,13.6
2023-04-26T11:30:21.405Z,13.5
2023-04-26T11:35:27.761Z,13.3
2023-04-26T11:40:34.164Z,13.3
2023-04-26T11:45:40.546Z,13.2
2023-04-26T11:50:46.891Z,13.2
2023-04-26T11:55:53.282Z,13.2
2023-04-26T12:00:59.710Z,13.3
2023-04-26T12:06:06.030Z,13.4
2023-04-26T12:11:12.406Z,13.6
2023-04-26T12:16:38.910Z,13.7
2023-04-26T12:21:25.598Z,13.8
2023-04-26T12:31:38.130Z,14.2
2023-04-26T12:36:44.660Z,14.5
2023-04-26T12:41:51.064Z,14.7
2023-04-26T12:47:21.584Z,15.0
2023-04-26T12:52:23.883Z,15.3
2023-04-26T12:58:08.856Z,15.6
2023-04-26T13:02:19.268Z,15.9
2023-04-26T13:07:46.636Z,16.1
2023-04-26T13:12:33.049Z,16.2
2023-04-26T13:17:59.479Z,16.2
2023-04-26T13:22:45.801Z,16.2
2023-04-26T13:27:52.212Z,16.2
2023-04-26T13:32:48.609Z,16.1
2023-04-26T13:38:06.554Z,16.1
2023-04-26T13:43:12.957Z,15.9
2023-04-26T13:48:19.327Z,15.9
2023-04-26T13:53:25.695Z,15.8
2023-04-26T13:58:32.181Z,15.8
2023-04-26T14:04:02.862Z,15.7
2023-04-26T14:08:45.011Z,15.7
2023-04-26T14:13:52.705Z,15.7
2023-04-26T14:18:57.779Z,15.6
2023-04-26T14:24:28.266Z,15.6
2023-04-26T14:29:34.665Z,15.6
2023-04-26T14:34:17.171Z,15.5
2023-04-26T14:39:24.822Z,15.6
2023-04-26T14:44:30.151Z,15.5
2023-04-26T14:49:36.578Z,15.5
2023-04-26T14:55:06.972Z,15.4
2023-04-26T14:59:49.298Z,15.4
2023-04-26T15:04:55.747Z,15.3
2023-04-26T15:10:02.073Z,15.2
2023-04-26T15:15:08.444Z,15.2
2023-04-26T15:20:15.062Z,15.1
2023-04-26T15:25:21.412Z,15.1
2023-04-26T15:30:27.808Z,15.0
2023-04-26T15:35:34.229Z,14.9
2023-04-26T15:41:04.635Z,14.9
2023-04-26T15:45:47.543Z,14.8
2023-04-26T15:50:53.982Z,14.7
2023-04-26T15:56:00.294Z,14.6
2023-04-26T16:00:56.644Z,14.5
2023-04-26T16:06:13.087Z,14.5
2023-04-26T16:11:19.434Z,14.4
2023-04-26T16:16:25.907Z,14.3
2023-04-26T16:21:32.310Z,14.2
2023-04-26T16:26:38.657Z,14.2
2023-04-26T16:31:45.100Z,14.0
2023-04-26T16:37:11.535Z,14.0
2023-04-26T16:41:57.847Z,13.8
2023-04-26T16:47:04.784Z,13.7
2023-04-26T16:52:11.240Z,13.5
2023-04-26T16:57:17.749Z,13.3
2023-04-26T17:02:24.127Z,13.2
2023-04-26T17:07:34.357Z,13.0
2023-04-26T17:12:26.722Z,12.8
2023-04-26T17:17:43.263Z,12.6
2023-04-26T17:22:49.596Z,12.4
2023-04-26T17:27:46.004Z,12.3
2023-04-26T17:33:02.456Z,12.1
2023-04-26T17:38:08.832Z,12.0
2023-04-26T17:43:15.267Z,11.9
2023-04-26T17:48:25.150Z,11.7
2023-04-26T17:53:31.542Z,11.6
2023-04-26T17:58:38.040Z,11.5
2023-04-26T18:03:44.628Z,11.3
2023-04-26T18:08:54.466Z,11.2
2023-04-26T18:14:00.855Z,11.1
2023-04-26T18:19:07.215Z,10.9
2023-04-26T18:24:13.597Z,10.8
2023-04-26T18:30:18.202Z,10.6
2023-04-26T18:35:01.465Z,10.6
2023-04-26T18:40:27.878Z,10.4
2023-04-26T18:45:35.858Z,10.4
2023-04-26T18:50:22.176Z,10.2
2023-04-26T18:55:28.557Z,10.1
2023-04-26T19:00:54.993Z,10.0
2023-04-26T19:06:18.959Z,9.8
2023-04-26T19:10:51.517Z,9.7
2023-04-26T19:15:47.901Z,9.6
2023-04-26T19:21:28.334Z,9.5
2023-04-26T19:26:30.679Z,9.4
2023-04-26T19:31:17.130Z,9.3
2023-04-26T19:36:23.514Z,9.2
2023-04-26T19:41:30.044Z,9.1
2023-04-26T19:46:56.513Z,9.0
2023-04-26T19:51:32.799Z,8.9
2023-04-26T19:56:49.216Z,8.8
2023-04-26T20:01:55.663Z,8.7
2023-04-26T20:07:16.025Z,8.7
2023-04-26T20:17:18.361Z,8.5
2023-04-26T20:32:37.572Z,8.4
2023-04-26T20:38:03.968Z,8.3
2023-04-26T20:42:50.373Z,8.2
2023-04-26T20:48:01.356Z,8.2
2023-04-26T20:58:10.168Z,8.1
2023-04-26T21:03:16.892Z,8.0
2023-04-26T21:08:23.057Z,8.0
2023-04-26T21:13:29.444Z,7.9
2023-04-26T21:18:35.863Z,7.9
2023-04-26T21:23:42.240Z,7.8
2023-04-26T21:28:48.701Z,7.8
2023-04-26T21:33:55.053Z,7.7
2023-04-26T21:55:46.299Z,7.9
2023-04-26T22:00:32.719Z,7.9
2023-04-26T22:07:24.452Z,7.7
2023-04-26T22:10:45.579Z,7.4
2023-04-26T22:15:41.989Z,7.2
2023-04-26T22:21:18.404Z,7.0
2023-04-26T22:27:26.955Z,6.9
2023-04-26T22:31:11.160Z,6.7
2023-04-26T22:37:20.818Z,6.6
2023-04-26T22:41:23.982Z,6.5
2023-04-26T22:46:30.372Z,6.3
2023-04-26T22:52:09.413Z,6.2
2023-04-26T22:56:43.071Z,6.1
2023-04-26T23:01:49.595Z,5.9
2023-04-26T23:06:55.838Z,5.8
2023-04-26T23:12:26.326Z,5.7
2023-04-26T23:17:08.764Z,5.6
2023-04-26T23:22:15.139Z,5.4
2023-04-26T23:27:11.523Z,5.3
2023-04-26T23:32:48.010Z,5.2
2023-04-26T23:37:53.364Z,5.1
2023-04-26T23:42:40.710Z,5.0
2023-04-26T23:48:57.292Z,4.9
2023-04-26T23:52:53.672Z,4.8
2023-04-26T23:58:00.049Z,4.7
